createdAt,value
2024-05-09T00:00:46.043Z,27.00
2024-05-09T00:03:13.488Z,26.98
2024-05-09T00:05:41.873Z,26.55
2024-05-09T00:08:10.222Z,26.58
2024-05-09T00:10:41.056Z,28.17
2024-05-09T00:13:10.503Z,23.95
2024-05-09T00:15:38.276Z,26.35
2024-05-09T00:18:07.858Z,27.27
2024-05-09T00:20:39.502Z,26.77
2024-05-09T00:23:12.864Z,26.70
2024-05-09T00:25:44.567Z,24.67
2024-05-09T00:28:12.829Z,25.35
2024-05-09T00:30:40.228Z,29.92
2024-05-09T00:33:11.738Z,32.45
2024-05-09T00:35:39.919Z,27.85
2024-05-09T00:38:07.245Z,27.23
2024-05-09T00:40:39.930Z,28.58
2024-05-09T00:43:14.294Z,28.40
2024-05-09T00:45:42.811Z,32.03
2024-05-09T00:48:14.308Z,28.33
2024-05-09T00:50:45.952Z,24.70
2024-05-09T00:53:15.852Z,28.40
2024-05-09T00:55:44.150Z,25.20
2024-05-09T00:58:14.382Z,28.00
2024-05-09T01:00:44.899Z,31.25
2024-05-09T01:03:14.089Z,30.02
2024-05-09T01:05:43.417Z,28.45
2024-05-09T01:08:14.548Z,29.27
2024-05-09T01:10:44.983Z,28.95
2024-05-09T01:13:13.773Z,27.05
2024-05-09T01:15:41.642Z,28.27
2024-05-09T01:18:12.148Z,32.38
2024-05-09T01:20:43.791Z,26.83
2024-05-09T01:23:15.158Z,29.75
2024-05-09T01:25:44.632Z,30.73
2024-05-09T01:28:12.362Z,27.08
2024-05-09T01:30:39.471Z,28.20
2024-05-09T01:33:09.450Z,32.95
2024-05-09T01:35:41.666Z,27.42
2024-05-09T01:38:12.321Z,26.52
2024-05-09T01:40:40.433Z,27.27
2024-05-09T01:43:12.090Z,31.33
2024-05-09T01:45:40.344Z,29.95
2024-05-09T01:48:08.566Z,25.80
2024-05-09T01:50:40.247Z,28.88
2024-05-09T01:53:11.710Z,27.45
2024-05-09T01:55:39.520Z,24.58
2024-05-09T01:58:07.487Z,29.85
2024-05-09T02:00:40.116Z,29.02
2024-05-09T02:03:16.027Z,34.65
2024-05-09T02:05:50.257Z,34.70
2024-05-09T02:08:19.989Z,34.13
2024-05-09T02:10:48.339Z,33.28
2024-05-09T02:13:17.443Z,35.95
2024-05-09T02:15:44.749Z,39.50
2024-05-09T02:18:12.618Z,44.72
2024-05-09T02:20:41.610Z,44.70
2024-05-09T02:23:10.004Z,49.63
2024-05-09T02:25:37.551Z,45.58
2024-05-09T02:28:05.011Z,49.05
2024-05-09T02:30:40.236Z,56.22
2024-05-09T02:33:13.828Z,57.83
2024-05-09T02:35:43.107Z,60.40
2024-05-09T02:38:11.864Z,67.13
2024-05-09T02:40:40.137Z,58.00
2024-05-09T02:43:09.964Z,62.80
2024-05-09T02:45:39.691Z,64.43
2024-05-09T02:48:10.219Z,64.57
2024-05-09T02:50:39.612Z,56.35
2024-05-09T02:53:08.417Z,62.83
2024-05-09T02:55:36.250Z,66.85
2024-05-09T02:58:03.362Z,68.53
2024-05-09T03:00:38.252Z,65.68
2024-05-09T03:03:10.109Z,68.60
2024-05-09T03:05:39.777Z,70.50
2024-05-09T03:08:07.714Z,64.97
2024-05-09T03:10:36.910Z,71.70
2024-05-09T03:13:11.677Z,70.55
2024-05-09T03:15:39.273Z,73.32
2024-05-09T03:18:07.595Z,67.90
2024-05-09T03:20:36.343Z,67.55
2024-05-09T03:23:05.823Z,78.43
2024-05-09T03:25:34.242Z,70.18
2024-05-09T03:28:01.771Z,74.72
2024-05-09T03:30:36.379Z,72.22
2024-05-09T03:33:13.874Z,75.50
2024-05-09T03:35:42.278Z,81.22
2024-05-09T03:38:09.851Z,74.45
2024-05-09T03:40:48.015Z,72.00
2024-05-09T03:43:15.692Z,73.05
2024-05-09T03:45:44.010Z,77.57
2024-05-09T03:48:11.988Z,73.80
2024-05-09T03:50:42.677Z,71.82
2024-05-09T03:53:14.283Z,77.00
2024-05-09T03:55:42.000Z,77.40
2024-05-09T03:58:09.630Z,72.78
2024-05-09T04:00:39.426Z,79.03
2024-05-09T04:03:10.838Z,68.15
2024-05-09T04:05:41.880Z,74.07
2024-05-09T04:08:14.260Z,69.65
2024-05-09T04:10:42.014Z,73.07
2024-05-09T04:13:10.538Z,81.30
2024-05-09T04:15:37.584Z,73.53
2024-05-09T04:18:04.914Z,74.78
2024-05-09T04:20:38.085Z,70.95
2024-05-09T04:23:11.797Z,70.18
2024-05-09T04:25:43.486Z,73.70
2024-05-09T04:28:11.017Z,70.90
2024-05-09T04:30:40.865Z,75.35
2024-05-09T04:33:12.280Z,74.68
2024-05-09T04:35:45.217Z,76.13
2024-05-09T04:38:14.409Z,75.93
2024-05-09T04:40:42.051Z,78.43
2024-05-09T04:43:16.231Z,70.78
2024-05-09T04:45:43.457Z,75.30
2024-05-09T04:48:11.072Z,73.25
2024-05-09T04:50:39.635Z,76.03
2024-05-09T04:53:15.089Z,72.43
2024-05-09T04:55:42.412Z,72.13
2024-05-09T04:58:10.290Z,66.95
2024-05-09T05:00:41.624Z,76.15
2024-05-09T05:03:14.320Z,75.43
2024-05-09T05:05:44.563Z,72.35
2024-05-09T05:08:17.779Z,79.15
2024-05-09T05:10:46.972Z,76.32
2024-05-09T05:13:22.742Z,70.50
2024-05-09T05:15:53.591Z,73.68
2024-05-09T05:18:21.420Z,71.13
2024-05-09T05:20:49.329Z,80.13
2024-05-09T05:23:20.059Z,79.38
2024-05-09T05:25:48.849Z,77.50
2024-05-09T05:28:17.129Z,78.00
2024-05-09T05:30:44.788Z,82.32
2024-05-09T05:33:14.323Z,78.80
2024-05-09T05:35:42.364Z,78.80
2024-05-09T05:38:11.360Z,76.05
2024-05-09T05:40:40.017Z,74.72
2024-05-09T05:43:09.898Z,83.97
2024-05-09T05:45:37.735Z,80.63
2024-05-09T05:48:06.541Z,80.68
2024-05-09T05:50:37.358Z,85.78
2024-05-09T05:53:10.347Z,82.28
2024-05-09T05:55:41.232Z,75.47
2024-05-09T05:58:11.894Z,80.38
2024-05-09T06:00:41.189Z,77.40
2024-05-09T06:03:10.538Z,76.40
2024-05-09T06:05:44.107Z,80.32
2024-05-09T06:08:12.412Z,77.13
2024-05-09T06:10:41.078Z,89.57
2024-05-09T06:13:11.799Z,83.00
2024-05-09T06:15:40.523Z,85.70
2024-05-09T06:18:10.567Z,86.97
2024-05-09T06:20:40.270Z,80.15
2024-05-09T06:23:08.358Z,79.50
2024-05-09T06:25:36.643Z,79.68
2024-05-09T06:28:04.423Z,77.50
2024-05-09T06:30:40.605Z,87.35
2024-05-09T06:33:12.512Z,86.10
2024-05-09T06:35:41.904Z,87.65
2024-05-09T06:38:09.830Z,76.60
2024-05-09T06:40:40.687Z,83.57
2024-05-09T06:43:13.768Z,86.50
2024-05-09T06:45:41.251Z,86.55
2024-05-09T06:48:10.040Z,82.53
2024-05-09T06:50:39.363Z,75.60
2024-05-09T06:53:08.605Z,77.72
2024-05-09T06:55:37.849Z,72.07
2024-05-09T06:58:09.637Z,77.28
2024-05-09T07:00:39.913Z,72.28
2024-05-09T07:03:16.671Z,77.57
2024-05-09T07:05:47.082Z,73.20
2024-05-09T07:08:15.838Z,72.25
2024-05-09T07:10:44.056Z,70.88
2024-05-09T07:13:12.748Z,70.10
2024-05-09T07:15:41.217Z,65.35
2024-05-09T07:18:18.010Z,71.97
2024-05-09T07:20:47.417Z,66.97
2024-05-09T07:23:15.948Z,62.38
2024-05-09T07:25:43.235Z,67.00
2024-05-09T07:28:21.132Z,70.63
2024-05-09T07:30:48.711Z,73.63
2024-05-09T07:33:17.614Z,75.70
2024-05-09T07:35:45.034Z,71.55
2024-05-09T07:38:12.474Z,65.82
2024-05-09T07:40:41.748Z,66.75
2024-05-09T07:43:14.591Z,73.78
2024-05-09T07:45:51.140Z,66.03
2024-05-09T07:52:37.575Z,70.70
2024-05-09T07:53:47.261Z,74.40
2024-05-09T07:56:19.694Z,65.25
2024-05-09T07:58:51.013Z,65.70
2024-05-09T08:01:18.782Z,64.28
2024-05-09T08:03:46.526Z,68.13
2024-05-09T08:06:13.949Z,60.20
2024-05-09T08:08:41.251Z,64.00
2024-05-09T08:11:08.495Z,60.60
2024-05-09T08:13:35.716Z,59.25
2024-05-09T08:16:02.823Z,57.40
2024-05-09T08:18:30.099Z,63.88
2024-05-09T08:20:58.472Z,63.55
2024-05-09T08:23:25.639Z,58.63
2024-05-09T08:25:55.910Z,60.78
2024-05-09T08:28:23.478Z,61.95
2024-05-09T08:30:50.813Z,56.53
2024-05-09T08:33:18.171Z,59.10
2024-05-09T08:35:45.458Z,63.30
2024-05-09T08:38:12.663Z,60.40
2024-05-09T08:40:41.347Z,60.97
2024-05-09T08:43:11.917Z,58.42
2024-05-09T08:45:44.355Z,53.70
2024-05-09T08:48:15.218Z,58.83
2024-05-09T08:50:44.959Z,51.47
2024-05-09T08:53:15.054Z,59.47
2024-05-09T08:55:44.154Z,54.80
2024-05-09T08:58:19.937Z,56.50
2024-05-09T09:00:48.894Z,53.38
2024-05-09T09:03:19.671Z,52.03
2024-05-09T09:05:57.917Z,51.20
2024-05-09T09:08:26.634Z,54.42
2024-05-09T09:10:57.670Z,53.03
2024-05-09T09:13:25.334Z,52.20
2024-05-09T09:15:58.210Z,48.78
2024-05-09T09:18:30.695Z,56.45
2024-05-09T09:20:58.349Z,51.63
2024-05-09T09:23:30.372Z,46.95
2024-05-09T09:26:01.467Z,47.28
2024-05-09T09:28:29.961Z,42.65
2024-05-09T09:31:04.537Z,52.83
2024-05-09T09:33:32.782Z,46.10
2024-05-09T09:36:03.104Z,48.22
2024-05-09T09:38:32.466Z,52.50
2024-05-09T09:41:01.651Z,48.47
2024-05-09T09:43:29.792Z,50.67
2024-05-09T09:46:00.118Z,47.53
2024-05-09T09:48:29.941Z,43.38
2024-05-09T09:50:57.544Z,49.15
2024-05-09T09:53:24.912Z,48.28
2024-05-09T09:55:53.399Z,41.67
2024-05-09T09:58:20.876Z,46.58
2024-05-09T10:00:48.742Z,45.40
2024-05-09T10:03:16.223Z,53.25
2024-05-09T10:05:46.474Z,44.92
2024-05-09T10:08:16.801Z,47.42
2024-05-09T10:10:47.826Z,42.92
2024-05-09T10:13:15.620Z,45.22
2024-05-09T10:15:53.999Z,50.00
2024-05-09T10:18:28.134Z,45.25
2024-05-09T10:20:57.850Z,49.47
2024-05-09T10:23:26.121Z,45.10
2024-05-09T10:25:57.395Z,45.58
2024-05-09T10:28:32.822Z,42.75
2024-05-09T10:31:08.262Z,44.55
2024-05-09T10:33:52.331Z,43.75
2024-05-09T10:36:20.727Z,44.35
2024-05-09T10:38:49.975Z,42.78
2024-05-09T10:41:18.213Z,46.42
2024-05-09T10:43:45.547Z,44.33
2024-05-09T10:46:13.684Z,40.33
2024-05-09T10:48:43.747Z,41.70
2024-05-09T10:51:11.295Z,41.40
2024-05-09T10:53:42.904Z,42.30
2024-05-09T10:56:11.033Z,42.08
2024-05-09T10:58:38.471Z,42.65
2024-05-09T11:01:07.190Z,42.65
2024-05-09T11:03:35.995Z,41.67
2024-05-09T11:06:04.106Z,40.58
2024-05-09T11:08:32.956Z,39.03
2024-05-09T11:11:00.511Z,43.40
2024-05-09T11:13:36.010Z,40.58
2024-05-09T11:16:04.694Z,38.90
2024-05-09T11:18:36.563Z,39.65
2024-05-09T11:21:13.201Z,43.00
2024-05-09T11:23:41.404Z,40.40
2024-05-09T11:26:11.487Z,40.55
2024-05-09T11:28:38.756Z,38.55
2024-05-09T11:31:10.664Z,44.00
2024-05-09T11:33:46.746Z,37.40
2024-05-09T11:36:14.709Z,38.13
2024-05-09T11:38:42.737Z,36.05
2024-05-09T11:41:16.485Z,40.05
2024-05-09T11:43:43.869Z,33.10
2024-05-09T11:46:11.476Z,34.85
2024-05-09T11:48:40.166Z,37.67
2024-05-09T11:51:07.400Z,36.10
2024-05-09T11:53:34.452Z,34.22
2024-05-09T11:56:01.575Z,37.80
2024-05-09T11:58:34.383Z,43.42
2024-05-09T12:01:02.242Z,35.00
2024-05-09T12:03:30.104Z,37.97
2024-05-09T12:05:57.771Z,40.97
2024-05-09T12:08:25.228Z,37.85
2024-05-09T12:10:53.092Z,35.42
2024-05-09T12:13:20.536Z,37.38
2024-05-09T12:15:47.696Z,40.97
2024-05-09T12:18:14.970Z,39.90
2024-05-09T12:20:42.766Z,36.70
2024-05-09T12:23:10.745Z,35.55
2024-05-09T12:25:39.661Z,33.50
2024-05-09T12:28:08.282Z,33.65
2024-05-09T12:30:40.269Z,33.05
2024-05-09T12:33:12.914Z,33.42
2024-05-09T12:35:44.078Z,39.33
2024-05-09T12:38:14.319Z,36.28
2024-05-09T12:40:42.723Z,30.92
2024-05-09T12:43:11.250Z,28.75
2024-05-09T12:45:39.919Z,30.65
2024-05-09T12:48:12.280Z,32.25
2024-05-09T12:50:40.847Z,32.72
2024-05-09T12:53:08.342Z,30.35
2024-05-09T12:55:44.137Z,33.15
2024-05-09T12:58:22.109Z,40.25
2024-05-09T13:00:50.764Z,30.00
2024-05-09T13:03:18.120Z,30.60
2024-05-09T13:05:46.091Z,30.30
2024-05-09T13:08:14.251Z,35.67
2024-05-09T13:10:41.778Z,29.67
2024-05-09T13:13:12.601Z,27.55
2024-05-09T13:15:40.419Z,26.20
2024-05-09T13:18:08.756Z,28.02
2024-05-09T13:20:37.244Z,30.88
2024-05-09T13:23:07.837Z,29.73
2024-05-09T13:25:36.580Z,58.33
2024-05-09T13:28:05.111Z,30.08
2024-05-09T13:30:39.618Z,31.60
2024-05-09T13:33:15.551Z,24.98
2024-05-09T13:35:47.355Z,27.33
2024-05-09T13:38:19.358Z,30.02
2024-05-09T13:40:47.793Z,31.88
2024-05-09T13:43:15.316Z,27.40
2024-05-09T13:45:42.835Z,29.13
2024-05-09T13:48:10.579Z,26.25
2024-05-09T13:50:39.116Z,29.45
2024-05-09T13:53:07.828Z,24.98
2024-05-09T13:55:39.390Z,26.45
2024-05-09T13:58:07.543Z,23.90
2024-05-09T14:03:05.880Z,23.95
2024-05-09T14:05:33.378Z,25.63
2024-05-09T14:08:01.025Z,22.98
2024-05-09T14:10:31.248Z,24.92
2024-05-09T14:13:01.287Z,22.63
2024-05-09T14:15:28.976Z,26.00
2024-05-09T14:17:56.265Z,26.80
2024-05-09T14:20:30.570Z,24.23
2024-05-09T14:23:00.993Z,24.25
2024-05-09T14:25:29.754Z,25.13
2024-05-09T14:27:58.639Z,21.27
2024-05-09T14:30:34.668Z,22.42
2024-05-09T14:33:06.498Z,18.48
2024-05-09T14:35:34.590Z,20.60
2024-05-09T14:38:02.015Z,20.80
2024-05-09T14:40:39.102Z,23.63
2024-05-09T14:43:15.303Z,24.20
2024-05-09T14:45:44.050Z,21.25
2024-05-09T14:48:12.633Z,21.75
2024-05-09T14:50:40.869Z,20.70
2024-05-09T14:53:13.467Z,24.02
2024-05-09T14:55:42.795Z,22.35
2024-05-09T14:58:12.476Z,24.45
2024-05-09T15:00:46.235Z,19.23
2024-05-09T15:03:21.684Z,17.45
2024-05-09T15:05:50.038Z,21.33
2024-05-09T15:08:18.779Z,19.58
2024-05-09T15:10:47.332Z,21.08
2024-05-09T15:13:16.616Z,20.27
2024-05-09T15:15:45.135Z,17.05
2024-05-09T15:18:13.274Z,17.25
2024-05-09T15:20:41.120Z,14.25
2024-05-09T15:23:08.369Z,14.85
2024-05-09T15:25:36.539Z,17.20
2024-05-09T15:28:05.125Z,21.33
2024-05-09T15:30:34.049Z,16.17
2024-05-09T15:33:05.549Z,14.85
2024-05-09T15:35:34.260Z,18.63
2024-05-09T15:38:03.566Z,16.58
2024-05-09T15:40:38.238Z,19.77
2024-05-09T15:43:10.303Z,14.73
2024-05-09T15:45:39.264Z,17.30
2024-05-09T15:48:08.249Z,18.73
2024-05-09T15:50:39.796Z,18.75
2024-05-09T15:53:10.385Z,15.38
2024-05-09T15:55:38.551Z,16.38
2024-05-09T15:58:07.336Z,17.75
2024-05-09T16:00:39.542Z,15.60
2024-05-09T16:03:10.622Z,21.70
2024-05-09T16:05:38.526Z,18.35
2024-05-09T16:08:07.320Z,18.30
2024-05-09T16:10:35.467Z,14.10
2024-05-09T16:13:03.821Z,15.18
2024-05-09T16:15:31.827Z,17.48
2024-05-09T16:17:59.914Z,17.00
2024-05-09T16:20:35.127Z,16.63
2024-05-09T16:23:08.178Z,25.00
2024-05-09T16:25:35.778Z,18.15
2024-05-09T16:28:07.548Z,16.25
2024-05-09T16:30:38.267Z,20.60
2024-05-09T16:33:06.466Z,17.15
2024-05-09T16:35:34.984Z,17.70
2024-05-09T16:38:03.713Z,18.30
2024-05-09T16:40:37.833Z,17.98
2024-05-09T16:43:12.032Z,14.82
2024-05-09T16:45:41.388Z,15.43
2024-05-09T16:48:09.145Z,19.08
2024-05-09T16:50:36.836Z,20.10
2024-05-09T16:53:06.150Z,17.73
2024-05-09T16:55:34.584Z,19.92
2024-05-09T16:58:02.897Z,20.30
2024-05-09T17:00:39.409Z,18.13
2024-05-09T17:03:11.616Z,16.85
2024-05-09T17:05:40.285Z,20.48
2024-05-09T17:08:08.514Z,21.40
2024-05-09T17:10:38.685Z,19.30
2024-05-09T17:13:07.566Z,18.75
2024-05-09T17:15:37.007Z,19.05
2024-05-09T17:18:05.572Z,20.65
2024-05-09T17:20:36.009Z,16.70
2024-05-09T17:23:06.266Z,18.58
2024-05-09T17:25:34.529Z,20.48
2024-05-09T17:28:07.765Z,17.98
2024-05-09T17:30:38.478Z,20.10
2024-05-09T17:33:09.401Z,19.35
2024-05-09T17:35:38.230Z,19.58
2024-05-09T17:38:09.051Z,16.50
2024-05-09T17:40:38.090Z,17.90
2024-05-09T17:43:10.947Z,20.38
2024-05-09T17:45:40.559Z,19.10
2024-05-09T17:48:10.422Z,17.60
2024-05-09T17:50:38.779Z,18.80
2024-05-09T17:53:07.104Z,20.65
2024-05-09T17:55:35.100Z,22.25
2024-05-09T17:58:02.883Z,19.40
2024-05-09T18:00:37.691Z,22.92
2024-05-09T18:03:10.819Z,20.83
2024-05-09T18:05:38.638Z,17.58
2024-05-09T18:08:07.474Z,17.42
2024-05-09T18:10:38.162Z,16.55
2024-05-09T18:13:11.791Z,21.38
2024-05-09T18:15:39.635Z,17.88
2024-05-09T18:18:08.118Z,18.13
2024-05-09T18:20:42.819Z,20.20
2024-05-09T18:23:14.523Z,21.15
2024-05-09T18:25:43.223Z,16.50
2024-05-09T18:28:11.087Z,15.73
2024-05-09T18:30:39.096Z,18.17
2024-05-09T18:33:08.183Z,22.48
2024-05-09T18:35:36.705Z,23.75
2024-05-09T18:38:05.309Z,29.90
2024-05-09T18:40:36.132Z,37.08
2024-05-09T18:43:07.587Z,41.50
2024-05-09T18:45:39.976Z,46.28
2024-05-09T18:48:09.990Z,49.55
2024-05-09T18:50:40.268Z,47.90
2024-05-09T18:53:13.221Z,49.83
2024-05-09T18:55:42.791Z,51.63
2024-05-09T18:58:13.467Z,53.45
2024-05-09T19:00:43.861Z,57.15
2024-05-09T19:03:14.135Z,56.80
2024-05-09T19:05:44.395Z,61.85
2024-05-09T19:08:13.091Z,61.28
2024-05-09T19:10:40.840Z,62.92
2024-05-09T19:13:13.399Z,60.38
2024-05-09T19:15:42.765Z,61.42
2024-05-09T19:18:12.740Z,65.05
2024-05-09T19:20:40.654Z,79.72
2024-05-09T19:23:07.898Z,62.15
2024-05-09T19:25:36.693Z,64.28
2024-05-09T19:28:05.495Z,63.88
2024-05-09T19:30:38.935Z,66.50
2024-05-09T19:33:10.996Z,61.75
2024-05-09T19:35:39.576Z,69.07
2024-05-09T19:38:06.978Z,68.20
2024-05-09T19:40:35.251Z,64.45
2024-05-09T19:43:05.009Z,66.00
2024-05-09T19:45:34.416Z,63.90
2024-05-09T19:48:03.103Z,66.90
2024-05-09T19:50:37.558Z,70.10
2024-05-09T19:53:10.580Z,70.00
2024-05-09T19:55:38.298Z,67.93
2024-05-09T19:58:07.837Z,64.70
2024-05-09T20:00:38.155Z,65.82
2024-05-09T20:03:08.160Z,66.63
2024-05-09T20:05:36.943Z,61.03
2024-05-09T20:08:05.028Z,65.57
2024-05-09T20:10:35.013Z,71.63
2024-05-09T20:13:05.025Z,66.13
2024-05-09T20:15:35.229Z,67.35
2024-05-09T20:18:03.399Z,68.75
2024-05-09T20:20:37.530Z,74.45
2024-05-09T20:23:09.370Z,69.63
2024-05-09T20:25:36.838Z,68.25
2024-05-09T20:28:04.964Z,70.60
2024-05-09T20:30:34.492Z,68.28
2024-05-09T20:33:04.113Z,72.28
2024-05-09T20:35:33.025Z,67.35
2024-05-09T20:38:02.349Z,65.18
2024-05-09T20:40:34.714Z,72.53
2024-05-09T20:43:06.134Z,73.63
2024-05-09T20:45:34.125Z,70.70
2024-05-09T20:48:02.265Z,75.75
2024-05-09T20:50:37.161Z,70.80
2024-05-09T20:53:09.859Z,71.65
2024-05-09T20:55:37.272Z,74.80
2024-05-09T20:58:05.044Z,77.18
2024-05-09T21:00:40.184Z,67.57
2024-05-09T21:03:11.912Z,71.50
2024-05-09T21:05:40.547Z,75.00
2024-05-09T21:08:08.636Z,77.95
2024-05-09T21:10:37.219Z,70.88
2024-05-09T21:13:06.844Z,73.28
2024-05-09T21:15:35.637Z,77.82
2024-05-09T21:18:04.546Z,77.80
2024-05-09T21:20:35.114Z,75.38
2024-05-09T21:23:03.029Z,79.07
2024-05-09T21:25:30.645Z,75.22
2024-05-09T21:27:58.675Z,83.47
2024-05-09T21:30:36.902Z,79.13
2024-05-09T21:33:10.219Z,81.40
2024-05-09T21:35:39.261Z,76.90
2024-05-09T21:38:07.530Z,79.38
2024-05-09T21:40:36.607Z,78.32
2024-05-09T21:43:05.613Z,81.70
2024-05-09T21:45:36.361Z,78.97
2024-05-09T21:48:04.837Z,79.90
2024-05-09T21:50:39.219Z,80.18
2024-05-09T21:53:09.776Z,81.68
2024-05-09T21:55:36.862Z,77.40
2024-05-09T21:58:04.567Z,84.28
2024-05-09T22:00:36.690Z,86.72
2024-05-09T22:03:07.072Z,79.63
2024-05-09T22:05:35.373Z,81.95
2024-05-09T22:08:02.766Z,81.90
2024-05-09T22:10:34.598Z,79.63
2024-05-09T22:13:15.948Z,81.82
2024-05-09T22:15:43.606Z,85.57
2024-05-09T22:18:14.680Z,84.03
2024-05-09T22:20:48.446Z,79.03
2024-05-09T22:23:19.180Z,81.10
2024-05-09T22:25:55.961Z,80.90
2024-05-09T22:28:29.568Z,88.88
2024-05-09T22:31:09.399Z,88.13
2024-05-09T22:33:37.037Z,77.25
2024-05-09T22:36:09.413Z,79.20
2024-05-09T22:38:36.916Z,83.57
2024-05-09T22:41:09.703Z,81.95
2024-05-09T22:43:40.656Z,82.57
2024-05-09T22:46:07.918Z,82.00
2024-05-09T22:48:35.857Z,85.80
2024-05-09T22:51:05.246Z,82.57
2024-05-09T22:53:41.734Z,87.22
2024-05-09T22:56:10.769Z,83.88
2024-05-09T22:58:38.248Z,77.78
2024-05-09T23:01:06.532Z,79.25
2024-05-09T23:03:58.049Z,82.10
2024-05-09T23:06:31.186Z,80.55
2024-05-09T23:08:58.611Z,80.75
2024-05-09T23:11:28.938Z,79.30
2024-05-09T23:13:56.525Z,82.93
2024-05-09T23:16:24.200Z,82.60
2024-05-09T23:18:51.457Z,87.38
2024-05-09T23:21:18.896Z,83.45
2024-05-09T23:23:46.087Z,83.15
2024-05-09T23:26:22.151Z,89.50
2024-05-09T23:28:52.045Z,80.22
2024-05-09T23:31:29.864Z,89.03
2024-05-09T23:34:34.564Z,79.65
2024-05-09T23:37:06.020Z,93.55
2024-05-09T23:39:35.354Z,82.28
2024-05-09T23:42:14.322Z,92.30
2024-05-09T23:44:41.943Z,88.07
2024-05-09T23:47:11.083Z,82.38
2024-05-09T23:49:38.868Z,86.75
2024-05-09T23:52:32.947Z,91.13
2024-05-09T23:55:27.174Z,80.45
2024-05-09T23:57:58.273Z,86.88
